CPA459 RCKH-VHHH
Flight info
| Callsign | CPA459 |
|---|---|
| Flight time | 1h 6m |
| Altitude | 36000 |
| Route | PARAS2A PARAS T7 WP521 G581 ELATO V522 ABBEY |
| Aircraft | A321/M-SDE3FGHIRWY/LB1 |
Departure
| Time | 2026-04-15 12:47 |
|---|---|
| Airport | Kaohsiung International Airport (RCKH) |
Arrival
| Time | 2026-04-15 13:54 |
|---|---|
| Airport | Hong Kong International Airport (VHHH) |
| Time | Latitude | Longitude | Altitude | Speed | Heading |
|---|---|---|---|---|---|
| 2026-04-15 11:44 | 22.57266 | 120.34228 | 39 ft | 0 kts | 271° |
| 2026-04-15 12:36 | 22.57266 | 120.34233 | 38 ft | 4 kts | 271° |
| 2026-04-15 12:37 | 22.57266 | 120.34262 | 38 ft | 4 kts | 270° |
| 2026-04-15 12:37 | 22.57266 | 120.34291 | 38 ft | 4 kts | 263° |
| 2026-04-15 12:37 | 22.57273 | 120.34318 | 37 ft | 4 kts | 226° |
| 2026-04-15 12:37 | 22.57289 | 120.34325 | 37 ft | 4 kts | 180° |
| 2026-04-15 12:38 | 22.57316 | 120.34325 | 38 ft | 4 kts | 180° |
| 2026-04-15 12:38 | 22.57343 | 120.34326 | 36 ft | 4 kts | 180° |
| 2026-04-15 12:38 | 22.57370 | 120.34326 | 37 ft | 4 kts | 180° |
| 2026-04-15 12:38 | 22.57390 | 120.34326 | 38 ft | 4 kts | 200° |
| 2026-04-15 12:39 | 22.57402 | 120.34341 | 38 ft | 4 kts | 271° |
| 2026-04-15 12:39 | 22.57401 | 120.34366 | 37 ft | 2 kts | 271° |
| 2026-04-15 12:39 | 22.57400 | 120.34392 | 35 ft | 2 kts | 272° |
| 2026-04-15 12:39 | 22.57400 | 120.34394 | 35 ft | 0 kts | 272° |
| 2026-04-15 12:41 | 22.57400 | 120.34393 | 35 ft | 1 kts | 272° |
| 2026-04-15 12:41 | 22.57400 | 120.34388 | 35 ft | 2 kts | 272° |
| 2026-04-15 12:42 | 22.57402 | 120.34334 | 38 ft | 10 kts | 272° |
| 2026-04-15 12:42 | 22.57404 | 120.34252 | 38 ft | 12 kts | 272° |
| 2026-04-15 12:42 | 22.57407 | 120.34160 | 38 ft | 13 kts | 272° |
| 2026-04-15 12:42 | 22.57410 | 120.34059 | 38 ft | 14 kts | 272° |
| 2026-04-15 12:43 | 22.57413 | 120.33947 | 38 ft | 14 kts | 272° |
| 2026-04-15 12:43 | 22.57416 | 120.33854 | 38 ft | 11 kts | 272° |
| 2026-04-15 12:43 | 22.57418 | 120.33782 | 38 ft | 8 kts | 272° |
| 2026-04-15 12:43 | 22.57419 | 120.33728 | 38 ft | 8 kts | 272° |
| 2026-04-15 12:44 | 22.57442 | 120.33674 | 37 ft | 9 kts | 314° |
| 2026-04-15 12:44 | 22.57490 | 120.33624 | 38 ft | 10 kts | 317° |
| 2026-04-15 12:44 | 22.57546 | 120.33568 | 38 ft | 10 kts | 317° |
| 2026-04-15 12:44 | 22.57587 | 120.33527 | 38 ft | 7 kts | 317° |
| 2026-04-15 12:45 | 22.57614 | 120.33507 | 38 ft | 5 kts | 338° |
| 2026-04-15 12:45 | 22.57656 | 120.33503 | 38 ft | 7 kts | 359° |
| 2026-04-15 12:45 | 22.57708 | 120.33506 | 38 ft | 7 kts | 5° |
| 2026-04-15 12:45 | 22.57747 | 120.33524 | 38 ft | 5 kts | 63° |
| 2026-04-15 12:46 | 22.57751 | 120.33568 | 38 ft | 6 kts | 89° |
| 2026-04-15 12:46 | 22.57751 | 120.33608 | 38 ft | 5 kts | 91° |
| 2026-04-15 12:46 | 22.57748 | 120.33718 | 39 ft | 40 kts | 91° |
| 2026-04-15 12:46 | 22.57730 | 120.34314 | 40 ft | 116 kts | 92° |
| 2026-04-15 12:47 | 22.57697 | 120.35420 | 44 ft | 175 kts | 90° |
| 2026-04-15 12:47 | 22.57657 | 120.36755 | 598 ft | 181 kts | 90° |
| 2026-04-15 12:47 | 22.57494 | 120.38122 | 1293 ft | 189 kts | 113° |
| 2026-04-15 12:47 | 22.56533 | 120.39099 | 1863 ft | 203 kts | 160° |
| 2026-04-15 12:48 | 22.55098 | 120.39069 | 2166 ft | 218 kts | 205° |
| 2026-04-15 12:48 | 22.53833 | 120.38135 | 2658 ft | 224 kts | 222° |
| 2026-04-15 12:48 | 22.52669 | 120.36972 | 3161 ft | 232 kts | 226° |
| 2026-04-15 12:48 | 22.51895 | 120.36160 | 3597 ft | 235 kts | 225° |
| 2026-04-15 12:49 | 22.50317 | 120.34525 | 4626 ft | 236 kts | 224° |
| 2026-04-15 12:49 | 22.49111 | 120.33306 | 5291 ft | 238 kts | 224° |
| 2026-04-15 12:49 | 22.47903 | 120.32110 | 5970 ft | 240 kts | 224° |
| 2026-04-15 12:49 | 22.46661 | 120.30903 | 6648 ft | 241 kts | 224° |
| 2026-04-15 12:50 | 22.45398 | 120.29686 | 6936 ft | 244 kts | 224° |
| 2026-04-15 12:50 | 22.44135 | 120.28478 | 7400 ft | 242 kts | 224° |
| 2026-04-15 12:50 | 22.43301 | 120.27681 | 7732 ft | 242 kts | 223° |
| 2026-04-15 12:50 | 22.41601 | 120.26063 | 8413 ft | 247 kts | 223° |
| 2026-04-15 12:51 | 22.40292 | 120.24819 | 8944 ft | 255 kts | 223° |
| 2026-04-15 12:51 | 22.39401 | 120.23971 | 9295 ft | 260 kts | 223° |
| 2026-04-15 12:51 | 22.37552 | 120.22213 | 9992 ft | 270 kts | 223° |
| 2026-04-15 12:51 | 22.36146 | 120.20878 | 10471 ft | 276 kts | 223° |
| 2026-04-15 12:52 | 22.34683 | 120.19491 | 10968 ft | 283 kts | 223° |
| 2026-04-15 12:52 | 22.33691 | 120.18549 | 11230 ft | 291 kts | 223° |
| 2026-04-15 12:52 | 22.31621 | 120.16551 | 11731 ft | 305 kts | 227° |
| 2026-04-15 12:52 | 22.30688 | 120.15397 | 11982 ft | 312 kts | 234° |
| 2026-04-15 12:53 | 22.29546 | 120.13371 | 12354 ft | 321 kts | 246° |
| 2026-04-15 12:53 | 22.28789 | 120.11074 | 12732 ft | 330 kts | 257° |
| 2026-04-15 12:53 | 22.28274 | 120.08629 | 13110 ft | 338 kts | 257° |
| 2026-04-15 12:53 | 22.27569 | 120.05314 | 13637 ft | 345 kts | 257° |
| 2026-04-15 12:54 | 22.27199 | 120.03597 | 13877 ft | 350 kts | 257° |
| 2026-04-15 12:54 | 22.26641 | 120.01010 | 14218 ft | 357 kts | 257° |
| 2026-04-15 12:54 | 22.26080 | 119.98407 | 14559 ft | 364 kts | 257° |
| 2026-04-15 12:54 | 22.25302 | 119.94806 | 15027 ft | 372 kts | 257° |
| 2026-04-15 12:55 | 22.24915 | 119.92996 | 15270 ft | 375 kts | 257° |
| 2026-04-15 12:55 | 22.24326 | 119.90234 | 15627 ft | 381 kts | 257° |
| 2026-04-15 12:55 | 22.23728 | 119.87431 | 15988 ft | 385 kts | 258° |
| 2026-04-15 12:55 | 22.23123 | 119.84596 | 16353 ft | 390 kts | 258° |
| 2026-04-15 12:56 | 22.22513 | 119.81735 | 16724 ft | 393 kts | 258° |
| 2026-04-15 12:56 | 22.21894 | 119.78852 | 17096 ft | 396 kts | 258° |
| 2026-04-15 12:56 | 22.21268 | 119.75946 | 17483 ft | 399 kts | 258° |
| 2026-04-15 12:56 | 22.20648 | 119.73063 | 17856 ft | 401 kts | 258° |
| 2026-04-15 12:57 | 22.20016 | 119.70123 | 18241 ft | 403 kts | 258° |
| 2026-04-15 12:57 | 22.19382 | 119.67170 | 18591 ft | 404 kts | 258° |
| 2026-04-15 12:57 | 22.18743 | 119.64217 | 18992 ft | 404 kts | 258° |
| 2026-04-15 12:57 | 22.18097 | 119.61266 | 19401 ft | 404 kts | 258° |
| 2026-04-15 12:58 | 22.17452 | 119.58316 | 19812 ft | 404 kts | 258° |
| 2026-04-15 12:58 | 22.16811 | 119.55370 | 20235 ft | 404 kts | 258° |
| 2026-04-15 12:58 | 22.16238 | 119.52410 | 20654 ft | 402 kts | 263° |
| 2026-04-15 12:58 | 22.16047 | 119.49409 | 21086 ft | 401 kts | 269° |
| 2026-04-15 12:59 | 22.15920 | 119.43433 | 21853 ft | 402 kts | 269° |
| 2026-04-15 12:59 | 22.15843 | 119.40411 | 22229 ft | 403 kts | 269° |
| 2026-04-15 12:59 | 22.15756 | 119.37385 | 22608 ft | 404 kts | 269° |
| 2026-04-15 13:00 | 22.15664 | 119.34352 | 22991 ft | 405 kts | 269° |
| 2026-04-15 13:00 | 22.15574 | 119.31313 | 23381 ft | 406 kts | 269° |
| 2026-04-15 13:00 | 22.15487 | 119.28273 | 23731 ft | 406 kts | 269° |
| 2026-04-15 13:00 | 22.15401 | 119.25228 | 24082 ft | 407 kts | 269° |
| 2026-04-15 13:01 | 22.15318 | 119.22220 | 24370 ft | 407 kts | 269° |
| 2026-04-15 13:01 | 22.15235 | 119.19167 | 24706 ft | 407 kts | 269° |
| 2026-04-15 13:01 | 22.15157 | 119.16111 | 25044 ft | 408 kts | 269° |
| 2026-04-15 13:01 | 22.15072 | 119.13057 | 25388 ft | 408 kts | 268° |
| 2026-04-15 13:02 | 22.14991 | 119.09999 | 25733 ft | 408 kts | 270° |
| 2026-04-15 13:02 | 22.15178 | 119.06950 | 26077 ft | 408 kts | 277° |
| 2026-04-15 13:02 | 22.15548 | 119.03895 | 26210 ft | 414 kts | 277° |
| 2026-04-15 13:02 | 22.15920 | 119.00834 | 26324 ft | 420 kts | 277° |
| 2026-04-15 13:03 | 22.16302 | 118.97694 | 26511 ft | 423 kts | 277° |
| 2026-04-15 13:03 | 22.16681 | 118.94545 | 26825 ft | 424 kts | 277° |
| 2026-04-15 13:03 | 22.17059 | 118.91389 | 27140 ft | 425 kts | 277° |
| 2026-04-15 13:03 | 22.17438 | 118.88225 | 27468 ft | 425 kts | 277° |
| 2026-04-15 13:04 | 22.17816 | 118.85062 | 27782 ft | 426 kts | 276° |
| 2026-04-15 13:04 | 22.18192 | 118.81896 | 28107 ft | 426 kts | 276° |
| 2026-04-15 13:04 | 22.18570 | 118.78724 | 28437 ft | 426 kts | 276° |
| 2026-04-15 13:04 | 22.18947 | 118.75549 | 28772 ft | 427 kts | 276° |
| 2026-04-15 13:05 | 22.19325 | 118.72375 | 29110 ft | 427 kts | 276° |
| 2026-04-15 13:05 | 22.19697 | 118.69241 | 29446 ft | 427 kts | 276° |
| 2026-04-15 13:05 | 22.20071 | 118.66071 | 29797 ft | 426 kts | 276° |
| 2026-04-15 13:05 | 22.20444 | 118.62898 | 30125 ft | 426 kts | 276° |
| 2026-04-15 13:06 | 22.20817 | 118.59724 | 30420 ft | 426 kts | 276° |
| 2026-04-15 13:06 | 22.21186 | 118.56559 | 30718 ft | 425 kts | 276° |
| 2026-04-15 13:06 | 22.21552 | 118.53396 | 31016 ft | 425 kts | 276° |
| 2026-04-15 13:06 | 22.21921 | 118.50238 | 31323 ft | 424 kts | 276° |
| 2026-04-15 13:07 | 22.22291 | 118.47082 | 31634 ft | 423 kts | 276° |
| 2026-04-15 13:07 | 22.22656 | 118.43978 | 31941 ft | 422 kts | 276° |
| 2026-04-15 13:07 | 22.23025 | 118.40837 | 32254 ft | 422 kts | 276° |
| 2026-04-15 13:07 | 22.23390 | 118.37702 | 32572 ft | 421 kts | 276° |
| 2026-04-15 13:08 | 22.23756 | 118.34574 | 32904 ft | 419 kts | 276° |
| 2026-04-15 13:08 | 22.24122 | 118.31454 | 33225 ft | 418 kts | 276° |
| 2026-04-15 13:08 | 22.24484 | 118.28345 | 33556 ft | 417 kts | 276° |
| 2026-04-15 13:08 | 22.24841 | 118.25245 | 33892 ft | 416 kts | 275° |
| 2026-04-15 13:09 | 22.25189 | 118.22195 | 34187 ft | 414 kts | 275° |
| 2026-04-15 13:09 | 22.25538 | 118.19121 | 34478 ft | 413 kts | 275° |
| 2026-04-15 13:09 | 22.25889 | 118.16051 | 34775 ft | 411 kts | 275° |
| 2026-04-15 13:09 | 22.26239 | 118.13001 | 35071 ft | 409 kts | 275° |
| 2026-04-15 13:10 | 22.26580 | 118.09959 | 35278 ft | 409 kts | 275° |
| 2026-04-15 13:10 | 22.26917 | 118.06896 | 35391 ft | 412 kts | 275° |
| 2026-04-15 13:10 | 22.27253 | 118.03820 | 35507 ft | 414 kts | 275° |
| 2026-04-15 13:10 | 22.27594 | 118.00720 | 35625 ft | 417 kts | 275° |
| 2026-04-15 13:11 | 22.27933 | 117.97643 | 35748 ft | 419 kts | 275° |
| 2026-04-15 13:11 | 22.28287 | 117.94522 | 35896 ft | 420 kts | 275° |
| 2026-04-15 13:11 | 22.29009 | 117.88251 | 35954 ft | 421 kts | 275° |
| 2026-04-15 13:12 | 22.29733 | 117.81985 | 35947 ft | 421 kts | 275° |
| 2026-04-15 13:12 | 22.30450 | 117.75717 | 35948 ft | 420 kts | 275° |
| 2026-04-15 13:13 | 22.31159 | 117.69496 | 35950 ft | 420 kts | 275° |
| 2026-04-15 13:13 | 22.31864 | 117.63231 | 35955 ft | 420 kts | 275° |
| 2026-04-15 13:14 | 22.32564 | 117.56954 | 35955 ft | 421 kts | 275° |
| 2026-04-15 13:14 | 22.33250 | 117.50675 | 35960 ft | 421 kts | 273° |
| 2026-04-15 13:15 | 22.33244 | 117.44416 | 35969 ft | 420 kts | 268° |
| 2026-04-15 13:15 | 22.33126 | 117.38112 | 35972 ft | 420 kts | 268° |
| 2026-04-15 13:16 | 22.33010 | 117.31816 | 35863 ft | 419 kts | 268° |
| 2026-04-15 13:16 | 22.32954 | 117.28665 | 35673 ft | 420 kts | 268° |
| 2026-04-15 13:16 | 22.32896 | 117.25514 | 35484 ft | 420 kts | 268° |
| 2026-04-15 13:17 | 22.32838 | 117.22407 | 35296 ft | 419 kts | 268° |
| 2026-04-15 13:17 | 22.32780 | 117.19269 | 35110 ft | 417 kts | 268° |
| 2026-04-15 13:17 | 22.32724 | 117.16139 | 34935 ft | 416 kts | 268° |
| 2026-04-15 13:17 | 22.32667 | 117.13024 | 34744 ft | 414 kts | 268° |
| 2026-04-15 13:18 | 22.32608 | 117.09918 | 34572 ft | 413 kts | 268° |
| 2026-04-15 13:18 | 22.32547 | 117.06823 | 34395 ft | 412 kts | 268° |
| 2026-04-15 13:18 | 22.32482 | 117.03737 | 34212 ft | 410 kts | 268° |
| 2026-04-15 13:18 | 22.32417 | 117.00663 | 34032 ft | 409 kts | 268° |
| 2026-04-15 13:19 | 22.32355 | 116.97595 | 33838 ft | 408 kts | 268° |
| 2026-04-15 13:19 | 22.32294 | 116.94577 | 33633 ft | 407 kts | 268° |
| 2026-04-15 13:19 | 22.32232 | 116.91529 | 33428 ft | 406 kts | 268° |
| 2026-04-15 13:19 | 22.32169 | 116.88487 | 33224 ft | 404 kts | 268° |
| 2026-04-15 13:20 | 22.32106 | 116.85456 | 33025 ft | 403 kts | 268° |
| 2026-04-15 13:20 | 22.32044 | 116.82432 | 32824 ft | 402 kts | 268° |
| 2026-04-15 13:20 | 22.31981 | 116.79415 | 32613 ft | 402 kts | 268° |
| 2026-04-15 13:20 | 22.31916 | 116.76404 | 32414 ft | 401 kts | 268° |
| 2026-04-15 13:21 | 22.31849 | 116.73397 | 32223 ft | 400 kts | 268° |
| 2026-04-15 13:21 | 22.31782 | 116.70397 | 32021 ft | 399 kts | 268° |
| 2026-04-15 13:21 | 22.31715 | 116.67445 | 31831 ft | 398 kts | 268° |
| 2026-04-15 13:21 | 22.31649 | 116.64461 | 31639 ft | 397 kts | 268° |
| 2026-04-15 13:22 | 22.31584 | 116.61487 | 31451 ft | 396 kts | 268° |
| 2026-04-15 13:22 | 22.31516 | 116.58520 | 31260 ft | 395 kts | 268° |
| 2026-04-15 13:22 | 22.31448 | 116.55559 | 31077 ft | 394 kts | 268° |
| 2026-04-15 13:22 | 22.31380 | 116.52612 | 30891 ft | 392 kts | 268° |
| 2026-04-15 13:23 | 22.31309 | 116.49674 | 30702 ft | 391 kts | 268° |
| 2026-04-15 13:23 | 22.31241 | 116.46746 | 30518 ft | 390 kts | 268° |
| 2026-04-15 13:23 | 22.31173 | 116.43867 | 30339 ft | 389 kts | 268° |
| 2026-04-15 13:23 | 22.31104 | 116.40953 | 30156 ft | 387 kts | 268° |
| 2026-04-15 13:24 | 22.31038 | 116.38047 | 29966 ft | 387 kts | 268° |
| 2026-04-15 13:24 | 22.30972 | 116.35152 | 29753 ft | 386 kts | 268° |
| 2026-04-15 13:24 | 22.30903 | 116.32263 | 29539 ft | 384 kts | 268° |
| 2026-04-15 13:24 | 22.30833 | 116.29383 | 29326 ft | 383 kts | 268° |
| 2026-04-15 13:25 | 22.30759 | 116.26511 | 29112 ft | 382 kts | 268° |
| 2026-04-15 13:25 | 22.30685 | 116.23652 | 28904 ft | 380 kts | 268° |
| 2026-04-15 13:25 | 22.30612 | 116.20840 | 28699 ft | 379 kts | 268° |
| 2026-04-15 13:25 | 22.30540 | 116.17997 | 28493 ft | 378 kts | 268° |
| 2026-04-15 13:26 | 22.30473 | 116.15164 | 28284 ft | 377 kts | 268° |
| 2026-04-15 13:26 | 22.30406 | 116.12341 | 28076 ft | 376 kts | 268° |
| 2026-04-15 13:26 | 22.30336 | 116.09523 | 27880 ft | 375 kts | 268° |
| 2026-04-15 13:26 | 22.30263 | 116.06715 | 27732 ft | 374 kts | 268° |
| 2026-04-15 13:27 | 22.30191 | 116.03913 | 27576 ft | 373 kts | 268° |
| 2026-04-15 13:27 | 22.30114 | 116.01117 | 27431 ft | 372 kts | 268° |
| 2026-04-15 13:27 | 22.30046 | 115.98624 | 27298 ft | 372 kts | 268° |
| 2026-04-15 13:27 | 22.29974 | 115.95839 | 27151 ft | 371 kts | 268° |
| 2026-04-15 13:28 | 22.29901 | 115.93059 | 27006 ft | 370 kts | 268° |
| 2026-04-15 13:28 | 22.29824 | 115.90287 | 26866 ft | 369 kts | 268° |
| 2026-04-15 13:28 | 22.29745 | 115.87521 | 26721 ft | 368 kts | 268° |
| 2026-04-15 13:28 | 22.29670 | 115.84760 | 26577 ft | 368 kts | 268° |
| 2026-04-15 13:29 | 22.29599 | 115.82005 | 26430 ft | 367 kts | 268° |
| 2026-04-15 13:29 | 22.29529 | 115.79252 | 26287 ft | 366 kts | 268° |
| 2026-04-15 13:29 | 22.29460 | 115.76544 | 26147 ft | 366 kts | 268° |
| 2026-04-15 13:29 | 22.29388 | 115.73802 | 25999 ft | 365 kts | 268° |
| 2026-04-15 13:30 | 22.29317 | 115.71068 | 25906 ft | 363 kts | 268° |
| 2026-04-15 13:30 | 22.29243 | 115.68339 | 25927 ft | 364 kts | 268° |
| 2026-04-15 13:30 | 22.29168 | 115.65609 | 25928 ft | 364 kts | 268° |
| 2026-04-15 13:30 | 22.29094 | 115.62877 | 25927 ft | 364 kts | 268° |
| 2026-04-15 13:31 | 22.29020 | 115.60144 | 25915 ft | 364 kts | 268° |
| 2026-04-15 13:31 | 22.28944 | 115.57396 | 25189 ft | 371 kts | 268° |
| 2026-04-15 13:31 | 22.28869 | 115.54615 | 24410 ft | 379 kts | 268° |
| 2026-04-15 13:31 | 22.28790 | 115.51769 | 23830 ft | 379 kts | 268° |
| 2026-04-15 13:32 | 22.28711 | 115.48928 | 23279 ft | 378 kts | 268° |
| 2026-04-15 13:32 | 22.28632 | 115.46101 | 22697 ft | 375 kts | 268° |
| 2026-04-15 13:32 | 22.28551 | 115.43301 | 22166 ft | 371 kts | 268° |
| 2026-04-15 13:32 | 22.28472 | 115.40520 | 21601 ft | 369 kts | 268° |
| 2026-04-15 13:33 | 22.28392 | 115.37771 | 21102 ft | 365 kts | 268° |
| 2026-04-15 13:33 | 22.28312 | 115.35047 | 20620 ft | 361 kts | 268° |
| 2026-04-15 13:33 | 22.28234 | 115.32357 | 20165 ft | 356 kts | 268° |
| 2026-04-15 13:33 | 22.28157 | 115.29737 | 19721 ft | 352 kts | 268° |
| 2026-04-15 13:34 | 22.28077 | 115.27115 | 19273 ft | 347 kts | 268° |
| 2026-04-15 13:34 | 22.27997 | 115.24521 | 18833 ft | 344 kts | 268° |
| 2026-04-15 13:34 | 22.27915 | 115.21958 | 18396 ft | 340 kts | 267° |
| 2026-04-15 13:34 | 22.27834 | 115.19418 | 17926 ft | 337 kts | 267° |
| 2026-04-15 13:35 | 22.27754 | 115.16908 | 17480 ft | 332 kts | 267° |
| 2026-04-15 13:35 | 22.27677 | 115.14439 | 17061 ft | 327 kts | 267° |
| 2026-04-15 13:35 | 22.27602 | 115.12007 | 16642 ft | 322 kts | 267° |
| 2026-04-15 13:35 | 22.27529 | 115.09638 | 16239 ft | 318 kts | 267° |
| 2026-04-15 13:36 | 22.27454 | 115.07272 | 15840 ft | 313 kts | 267° |
| 2026-04-15 13:36 | 22.27379 | 115.04936 | 15443 ft | 309 kts | 267° |
| 2026-04-15 13:36 | 22.27304 | 115.02629 | 15055 ft | 306 kts | 267° |
| 2026-04-15 13:36 | 22.27230 | 115.00346 | 14667 ft | 303 kts | 266° |
| 2026-04-15 13:37 | 22.27156 | 114.98088 | 14286 ft | 300 kts | 266° |
| 2026-04-15 13:37 | 22.27083 | 114.95852 | 13911 ft | 297 kts | 266° |
| 2026-04-15 13:37 | 22.27010 | 114.93635 | 13520 ft | 294 kts | 266° |
| 2026-04-15 13:37 | 22.26942 | 114.91442 | 13138 ft | 290 kts | 266° |
| 2026-04-15 13:38 | 22.26874 | 114.89279 | 12777 ft | 287 kts | 266° |
| 2026-04-15 13:38 | 22.26805 | 114.87171 | 12430 ft | 283 kts | 266° |
| 2026-04-15 13:38 | 22.26732 | 114.85060 | 12081 ft | 280 kts | 266° |
| 2026-04-15 13:38 | 22.26661 | 114.82974 | 11734 ft | 277 kts | 266° |
| 2026-04-15 13:39 | 22.26589 | 114.80904 | 11390 ft | 275 kts | 266° |
| 2026-04-15 13:39 | 22.26518 | 114.78847 | 11051 ft | 273 kts | 266° |
| 2026-04-15 13:39 | 22.26238 | 114.76785 | 10798 ft | 289 kts | 257° |
| 2026-04-15 13:39 | 22.25814 | 114.74641 | 10480 ft | 294 kts | 257° |
| 2026-04-15 13:40 | 22.25388 | 114.72503 | 10171 ft | 289 kts | 257° |
| 2026-04-15 13:40 | 22.24969 | 114.70399 | 9905 ft | 285 kts | 257° |
| 2026-04-15 13:40 | 22.24559 | 114.68335 | 9622 ft | 284 kts | 257° |
| 2026-04-15 13:40 | 22.24144 | 114.66253 | 9340 ft | 283 kts | 257° |
| 2026-04-15 13:41 | 22.23731 | 114.64176 | 9114 ft | 282 kts | 257° |
| 2026-04-15 13:41 | 22.23319 | 114.62105 | 8873 ft | 282 kts | 257° |
| 2026-04-15 13:41 | 22.22908 | 114.60040 | 8609 ft | 281 kts | 257° |
| 2026-04-15 13:41 | 22.22499 | 114.57987 | 8339 ft | 279 kts | 257° |
| 2026-04-15 13:42 | 22.22301 | 114.55912 | 8184 ft | 280 kts | 274° |
| 2026-04-15 13:42 | 22.22836 | 114.53896 | 8063 ft | 283 kts | 297° |
| 2026-04-15 13:42 | 22.24025 | 114.52193 | 7945 ft | 286 kts | 308° |
| 2026-04-15 13:42 | 22.25304 | 114.50584 | 7821 ft | 286 kts | 308° |
| 2026-04-15 13:43 | 22.26603 | 114.48957 | 7703 ft | 286 kts | 308° |
| 2026-04-15 13:43 | 22.27900 | 114.47336 | 7517 ft | 285 kts | 308° |
| 2026-04-15 13:43 | 22.29195 | 114.45716 | 7332 ft | 285 kts | 308° |
| 2026-04-15 13:43 | 22.30485 | 114.44095 | 7142 ft | 284 kts | 308° |
| 2026-04-15 13:44 | 22.31771 | 114.42473 | 6953 ft | 284 kts | 308° |
| 2026-04-15 13:44 | 22.33052 | 114.40856 | 6766 ft | 283 kts | 308° |
| 2026-04-15 13:44 | 22.34332 | 114.39241 | 6581 ft | 283 kts | 308° |
| 2026-04-15 13:44 | 22.35606 | 114.37629 | 6398 ft | 281 kts | 308° |
| 2026-04-15 13:45 | 22.36856 | 114.36047 | 6214 ft | 281 kts | 308° |
| 2026-04-15 13:45 | 22.38121 | 114.34448 | 6016 ft | 279 kts | 308° |
| 2026-04-15 13:45 | 22.39349 | 114.32830 | 5834 ft | 277 kts | 301° |
| 2026-04-15 13:47 | 22.42184 | 114.20422 | 4787 ft | 207 kts | 272° |
| 2026-04-15 13:47 | 22.42031 | 114.18939 | 4638 ft | 193 kts | 249° |
| 2026-04-15 13:47 | 22.41588 | 114.17586 | 4508 ft | 189 kts | 249° |
| 2026-04-15 13:48 | 22.41158 | 114.16251 | 4368 ft | 188 kts | 249° |
| 2026-04-15 13:48 | 22.40729 | 114.14912 | 4205 ft | 188 kts | 249° |
| 2026-04-15 13:48 | 22.40302 | 114.13576 | 4075 ft | 187 kts | 249° |
| 2026-04-15 13:48 | 22.39875 | 114.12243 | 3911 ft | 188 kts | 249° |
| 2026-04-15 13:49 | 22.39451 | 114.10917 | 3616 ft | 186 kts | 249° |
| 2026-04-15 13:49 | 22.39031 | 114.09607 | 3330 ft | 184 kts | 250° |
| 2026-04-15 13:49 | 22.38617 | 114.08315 | 3041 ft | 184 kts | 249° |
| 2026-04-15 13:49 | 22.38198 | 114.07011 | 2762 ft | 183 kts | 249° |
| 2026-04-15 13:50 | 22.37785 | 114.05727 | 2680 ft | 174 kts | 248° |
| 2026-04-15 13:50 | 22.37401 | 114.04532 | 2530 ft | 165 kts | 247° |
| 2026-04-15 13:50 | 22.37026 | 114.03364 | 2327 ft | 163 kts | 248° |
| 2026-04-15 13:50 | 22.36656 | 114.02212 | 2114 ft | 162 kts | 248° |
| 2026-04-15 13:51 | 22.36284 | 114.01057 | 1894 ft | 163 kts | 248° |
| 2026-04-15 13:51 | 22.35924 | 113.99933 | 1680 ft | 152 kts | 248° |
| 2026-04-15 13:51 | 22.35583 | 113.98872 | 1475 ft | 147 kts | 248° |
| 2026-04-15 13:51 | 22.35247 | 113.97827 | 1278 ft | 147 kts | 248° |
| 2026-04-15 13:52 | 22.34916 | 113.96798 | 1092 ft | 147 kts | 249° |
| 2026-04-15 13:52 | 22.34580 | 113.95754 | 908 ft | 147 kts | 248° |
| 2026-04-15 13:52 | 22.34246 | 113.94712 | 728 ft | 149 kts | 249° |
| 2026-04-15 13:52 | 22.33913 | 113.93666 | 560 ft | 146 kts | 249° |
| 2026-04-15 13:53 | 22.33578 | 113.92628 | 366 ft | 146 kts | 249° |
| 2026-04-15 13:53 | 22.33245 | 113.91597 | 138 ft | 144 kts | 248° |
| 2026-04-15 13:53 | 22.32929 | 113.90606 | 46 ft | 129 kts | 247° |
| 2026-04-15 13:53 | 22.32671 | 113.89826 | 32 ft | 87 kts | 251° |
| 2026-04-15 13:54 | 22.32538 | 113.89411 | 32 ft | 22 kts | 250° |
| 2026-04-15 13:54 | 22.32464 | 113.89268 | 30 ft | 22 kts | 233° |
| 2026-04-15 13:54 | 22.32391 | 113.89189 | 32 ft | 12 kts | 220° |
| 2026-04-15 13:54 | 22.32341 | 113.89154 | 32 ft | 8 kts | 192° |
| 2026-04-15 13:55 | 22.32295 | 113.89187 | 32 ft | 9 kts | 111° |
| 2026-04-15 13:55 | 22.32309 | 113.89260 | 32 ft | 11 kts | 71° |
| 2026-04-15 13:55 | 22.32336 | 113.89346 | 32 ft | 13 kts | 71° |
| 2026-04-15 13:55 | 22.32368 | 113.89445 | 32 ft | 15 kts | 71° |
| 2026-04-15 13:56 | 22.32404 | 113.89557 | 32 ft | 17 kts | 71° |
| 2026-04-15 13:56 | 22.32444 | 113.89680 | 32 ft | 18 kts | 71° |
| 2026-04-15 13:56 | 22.32487 | 113.89814 | 31 ft | 20 kts | 71° |
| 2026-04-15 13:56 | 22.32534 | 113.89960 | 32 ft | 21 kts | 71° |
| 2026-04-15 13:57 | 22.32584 | 113.90117 | 32 ft | 23 kts | 71° |
| 2026-04-15 13:57 | 22.32639 | 113.90284 | 32 ft | 24 kts | 71° |
| 2026-04-15 13:57 | 22.32695 | 113.90460 | 32 ft | 25 kts | 70° |
| 2026-04-15 13:57 | 22.32755 | 113.90645 | 33 ft | 26 kts | 71° |
| 2026-04-15 13:58 | 22.32816 | 113.90837 | 32 ft | 28 kts | 71° |
| 2026-04-15 13:58 | 22.32880 | 113.91033 | 33 ft | 26 kts | 70° |
| 2026-04-15 13:58 | 22.32927 | 113.91179 | 30 ft | 16 kts | 71° |
| 2026-04-15 13:58 | 22.32964 | 113.91294 | 31 ft | 17 kts | 71° |
| 2026-04-15 13:59 | 22.33006 | 113.91423 | 33 ft | 19 kts | 71° |
| 2026-04-15 13:59 | 22.33050 | 113.91564 | 33 ft | 21 kts | 71° |
| 2026-04-15 13:59 | 22.33098 | 113.91716 | 33 ft | 22 kts | 70° |
| 2026-04-15 13:59 | 22.33151 | 113.91877 | 33 ft | 23 kts | 71° |
| 2026-04-15 14:00 | 22.33200 | 113.92033 | 32 ft | 15 kts | 71° |
| 2026-04-15 14:00 | 22.33205 | 113.92107 | 32 ft | 10 kts | 120° |
| 2026-04-15 14:00 | 22.33139 | 113.92143 | 32 ft | 12 kts | 160° |
| 2026-04-15 14:00 | 22.33055 | 113.92174 | 32 ft | 14 kts | 161° |
| 2026-04-15 14:01 | 22.32852 | 113.92249 | 32 ft | 17 kts | 161° |
| 2026-04-15 14:01 | 22.32734 | 113.92294 | 32 ft | 19 kts | 161° |
| 2026-04-15 14:01 | 22.32604 | 113.92342 | 32 ft | 20 kts | 160° |
| 2026-04-15 14:02 | 22.32465 | 113.92394 | 32 ft | 22 kts | 161° |
| 2026-04-15 14:02 | 22.32322 | 113.92447 | 32 ft | 18 kts | 161° |
| 2026-04-15 14:02 | 22.32249 | 113.92482 | 32 ft | 9 kts | 131° |
| 2026-04-15 14:02 | 22.32252 | 113.92554 | 31 ft | 11 kts | 73° |
| 2026-04-15 14:03 | 22.32279 | 113.92637 | 32 ft | 13 kts | 70° |
| 2026-04-15 14:03 | 22.32302 | 113.92722 | 32 ft | 9 kts | 94° |
| 2026-04-15 14:03 | 22.32251 | 113.92766 | 32 ft | 11 kts | 159° |
| 2026-04-15 14:03 | 22.32173 | 113.92795 | 32 ft | 13 kts | 162° |
| 2026-04-15 14:04 | 22.32092 | 113.92824 | 34 ft | 13 kts | 160° |
| 2026-04-15 14:04 | 22.32002 | 113.92857 | 34 ft | 15 kts | 161° |
| 2026-04-15 14:04 | 22.31905 | 113.92896 | 31 ft | 10 kts | 159° |
| 2026-04-15 14:04 | 22.31848 | 113.92925 | 32 ft | 9 kts | 144° |
| 2026-04-15 14:05 | 22.31841 | 113.92987 | 32 ft | 10 kts | 71° |
| 2026-04-15 14:05 | 22.31866 | 113.93065 | 32 ft | 12 kts | 71° |
| 2026-04-15 14:05 | 22.31829 | 113.93132 | 32 ft | 12 kts | 159° |
| 2026-04-15 14:05 | 22.31743 | 113.93165 | 32 ft | 14 kts | 161° |
| 2026-04-15 14:06 | 22.31658 | 113.93192 | 32 ft | 10 kts | 178° |
| 2026-04-15 14:06 | 22.31601 | 113.93151 | 30 ft | 10 kts | 244° |
| 2026-04-15 14:06 | 22.31584 | 113.93097 | 32 ft | 7 kts | 251° |
| 2026-04-15 14:06 | 22.31565 | 113.93038 | 32 ft | 9 kts | 250° |
| 2026-04-15 14:07 | 22.31549 | 113.92991 | 32 ft | 5 kts | 241° |
| 2026-04-15 14:07 | 22.31518 | 113.92980 | 32 ft | 4 kts | 168° |
| 2026-04-15 14:07 | 22.31491 | 113.92990 | 32 ft | 5 kts | 161° |
| 2026-04-15 14:07 | 22.31464 | 113.93000 | 32 ft | 2 kts | 161° |
| 2026-04-15 14:08 | 22.31453 | 113.93005 | 32 ft | 2 kts | 161° |
| 2026-04-15 14:08 | 22.31452 | 113.93005 | 32 ft | 0 kts | 161° |